DTTJ/DJE METAR and TAF weather

Enter ICAO airport designator
Station Type Date Time Source
DTTJ METAR 2021/03/03 02:30 UTC NOAA

DTTJ 030230Z 09012KT 9999 SCT023 15/10 Q1026 NOSIG


Station Type Date Time Source
DTTJ Decoded METAR 2021/03/03 02:30 UTC NOAA

Djerba Mellita, Tunisia (DTTJ) 33-52N 010-46E 4M
Mar 02, 2021 - 09:30 PM EST / 2021.03.03 0230 UTC
Wind: from the E (090 degrees) at 14 MPH (12 KT):0
Visibility: greater than 7 mile(s):0
Sky conditions: partly cloudy
Temperature: 59 F (15 C)
Dew Point: 50 F (10 C)
Relative Humidity: 72%
Pressure (altimeter): 30.30 in. Hg (1026 hPa)
ob: DTTJ 030230Z 09012KT 9999 SCT023 15/10 Q1026 NOSIG
cycle: 2

Station Type Date Time Source
DTTJ TAF 2021/03/02 18:48 UTC NOAA

TAF DTTJ 021700Z 0218/0318 08014KT 9999 FEW023 PROB40
TEMPO 0222/0312 09017G27KT

Example: see airport list